sensor_id;sensor_type;location;lat;lon;timestamp;P1;durP1;ratioP1;P2;durP2;ratioP2
59424;SDS011;45231;44.826;20.312;2022-12-07T00:01:44;79.43;;;36.60;;
59424;SDS011;45231;44.826;20.312;2022-12-07T00:06:38;66.43;;;31.92;;
59424;SDS011;45231;44.826;20.312;2022-12-07T00:09:05;73.68;;;33.80;;
59424;SDS011;45231;44.826;20.312;2022-12-07T00:11:32;68.45;;;32.53;;
59424;SDS011;45231;44.826;20.312;2022-12-07T00:13:59;72.80;;;34.23;;
59424;SDS011;45231;44.826;20.312;2022-12-07T00:16:27;65.07;;;32.20;;
59424;SDS011;45231;44.826;20.312;2022-12-07T00:18:54;71.78;;;32.03;;
59424;SDS011;45231;44.826;20.312;2022-12-07T00:21:21;64.53;;;29.55;;
59424;SDS011;45231;44.826;20.312;2022-12-07T00:23:48;66.63;;;30.00;;
59424;SDS011;45231;44.826;20.312;2022-12-07T00:28:41;66.80;;;27.67;;
59424;SDS011;45231;44.826;20.312;2022-12-07T00:31:08;69.10;;;28.33;;
59424;SDS011;45231;44.826;20.312;2022-12-07T00:33:35;67.90;;;27.88;;
59424;SDS011;45231;44.826;20.312;2022-12-07T00:36:02;74.35;;;28.10;;
59424;SDS011;45231;44.826;20.312;2022-12-07T00:38:30;75.43;;;26.83;;
59424;SDS011;45231;44.826;20.312;2022-12-07T00:40:57;67.40;;;25.67;;
59424;SDS011;45231;44.826;20.312;2022-12-07T00:43:23;65.53;;;25.48;;
59424;SDS011;45231;44.826;20.312;2022-12-07T00:45:50;64.30;;;25.65;;
59424;SDS011;45231;44.826;20.312;2022-12-07T00:48:16;60.67;;;24.77;;
59424;SDS011;45231;44.826;20.312;2022-12-07T00:50:42;57.77;;;24.50;;
59424;SDS011;45231;44.826;20.312;2022-12-07T00:53:08;56.25;;;23.88;;
59424;SDS011;45231;44.826;20.312;2022-12-07T00:55:35;50.67;;;22.50;;
59424;SDS011;45231;44.826;20.312;2022-12-07T00:58:01;56.33;;;23.00;;
59424;SDS011;45231;44.826;20.312;2022-12-07T01:00:27;58.63;;;24.80;;
59424;SDS011;45231;44.826;20.312;2022-12-07T01:02:53;46.70;;;19.53;;
59424;SDS011;45231;44.826;20.312;2022-12-07T01:05:19;49.90;;;23.60;;
59424;SDS011;45231;44.826;20.312;2022-12-07T01:07:45;56.75;;;23.25;;
59424;SDS011;45231;44.826;20.312;2022-12-07T01:10:12;52.03;;;23.67;;
59424;SDS011;45231;44.826;20.312;2022-12-07T01:12:38;49.20;;;21.40;;
59424;SDS011;45231;44.826;20.312;2022-12-07T01:15:04;46.53;;;21.38;;
59424;SDS011;45231;44.826;20.312;2022-12-07T01:17:31;48.92;;;21.13;;
59424;SDS011;45231;44.826;20.312;2022-12-07T01:19:57;48.55;;;22.38;;
59424;SDS011;45231;44.826;20.312;2022-12-07T01:22:23;50.92;;;22.55;;
59424;SDS011;45231;44.826;20.312;2022-12-07T01:24:49;53.37;;;22.77;;
59424;SDS011;45231;44.826;20.312;2022-12-07T01:27:15;50.33;;;22.25;;
59424;SDS011;45231;44.826;20.312;2022-12-07T01:29:41;54.25;;;20.98;;
59424;SDS011;45231;44.826;20.312;2022-12-07T01:32:07;45.80;;;19.57;;
59424;SDS011;45231;44.826;20.312;2022-12-07T01:34:33;54.60;;;22.33;;
59424;SDS011;45231;44.826;20.312;2022-12-07T01:36:59;48.38;;;22.17;;
59424;SDS011;45231;44.826;20.312;2022-12-07T01:39:25;52.67;;;22.85;;
59424;SDS011;45231;44.826;20.312;2022-12-07T01:41:52;59.47;;;22.23;;
59424;SDS011;45231;44.826;20.312;2022-12-07T01:44:25;59.63;;;22.60;;
59424;SDS011;45231;44.826;20.312;2022-12-07T01:46:55;49.90;;;21.58;;
59424;SDS011;45231;44.826;20.312;2022-12-07T01:49:38;50.38;;;21.60;;
59424;SDS011;45231;44.826;20.312;2022-12-07T01:54:39;55.72;;;21.33;;
59424;SDS011;45231;44.826;20.312;2022-12-07T01:57:06;49.20;;;21.25;;
59424;SDS011;45231;44.826;20.312;2022-12-07T01:59:32;43.28;;;18.40;;
59424;SDS011;45231;44.826;20.312;2022-12-07T02:01:58;46.05;;;18.15;;
59424;SDS011;45231;44.826;20.312;2022-12-07T02:04:27;45.58;;;19.00;;
59424;SDS011;45231;44.826;20.312;2022-12-07T02:06:53;47.53;;;18.10;;
59424;SDS011;45231;44.826;20.312;2022-12-07T02:09:20;40.95;;;17.48;;
59424;SDS011;45231;44.826;20.312;2022-12-07T02:11:46;43.53;;;17.43;;
59424;SDS011;45231;44.826;20.312;2022-12-07T02:14:12;51.63;;;19.43;;
59424;SDS011;45231;44.826;20.312;2022-12-07T02:16:51;47.00;;;19.90;;
59424;SDS011;45231;44.826;20.312;2022-12-07T02:24:27;35.75;;;15.95;;
59424;SDS011;45231;44.826;20.312;2022-12-07T02:29:37;32.45;;;14.18;;
59424;SDS011;45231;44.826;20.312;2022-12-07T02:32:25;29.33;;;14.25;;
59424;SDS011;45231;44.826;20.312;2022-12-07T02:35:03;27.98;;;13.73;;
59424;SDS011;45231;44.826;20.312;2022-12-07T02:37:39;25.92;;;12.48;;
59424;SDS011;45231;44.826;20.312;2022-12-07T02:40:16;26.42;;;12.85;;
59424;SDS011;45231;44.826;20.312;2022-12-07T02:42:47;26.77;;;12.23;;
59424;SDS011;45231;44.826;20.312;2022-12-07T02:45:17;23.17;;;12.02;;
59424;SDS011;45231;44.826;20.312;2022-12-07T02:47:44;23.20;;;12.10;;
59424;SDS011;45231;44.826;20.312;2022-12-07T02:52:37;23.88;;;11.63;;
59424;SDS011;45231;44.826;20.312;2022-12-07T02:55:03;20.43;;;10.67;;
59424;SDS011;45231;44.826;20.312;2022-12-07T02:57:52;22.10;;;10.85;;
59424;SDS011;45231;44.826;20.312;2022-12-07T03:00:20;20.35;;;10.77;;
59424;SDS011;45231;44.826;20.312;2022-12-07T03:05:20;20.02;;;11.55;;
59424;SDS011;45231;44.826;20.312;2022-12-07T03:10:59;18.88;;;8.85;;
59424;SDS011;45231;44.826;20.312;2022-12-07T03:17:57;19.43;;;10.27;;
59424;SDS011;45231;44.826;20.312;2022-12-07T03:20:24;16.63;;;9.20;;
59424;SDS011;45231;44.826;20.312;2022-12-07T03:22:51;19.05;;;9.20;;
59424;SDS011;45231;44.826;20.312;2022-12-07T03:25:18;19.85;;;10.27;;
59424;SDS011;45231;44.826;20.312;2022-12-07T03:27:47;17.63;;;9.80;;
59424;SDS011;45231;44.826;20.312;2022-12-07T03:30:18;16.02;;;9.13;;
59424;SDS011;45231;44.826;20.312;2022-12-07T03:33:03;17.83;;;9.13;;
59424;SDS011;45231;44.826;20.312;2022-12-07T03:35:40;19.23;;;9.90;;
59424;SDS011;45231;44.826;20.312;2022-12-07T03:40:41;25.40;;;11.32;;
59424;SDS011;45231;44.826;20.312;2022-12-07T03:43:10;21.52;;;10.50;;
59424;SDS011;45231;44.826;20.312;2022-12-07T03:45:43;24.80;;;12.00;;
59424;SDS011;45231;44.826;20.312;2022-12-07T03:50:47;21.08;;;9.35;;
59424;SDS011;45231;44.826;20.312;2022-12-07T03:53:20;19.00;;;10.18;;
59424;SDS011;45231;44.826;20.312;2022-12-07T03:55:48;20.75;;;9.70;;
59424;SDS011;45231;44.826;20.312;2022-12-07T03:58:16;19.60;;;8.85;;
59424;SDS011;45231;44.826;20.312;2022-12-07T04:00:43;18.38;;;9.48;;
59424;SDS011;45231;44.826;20.312;2022-12-07T04:03:10;15.02;;;8.25;;
59424;SDS011;45231;44.826;20.312;2022-12-07T04:05:36;18.92;;;7.93;;
59424;SDS011;45231;44.826;20.312;2022-12-07T04:08:02;15.38;;;8.82;;
59424;SDS011;45231;44.826;20.312;2022-12-07T04:10:29;17.63;;;7.90;;
59424;SDS011;45231;44.826;20.312;2022-12-07T04:12:55;15.02;;;8.75;;
59424;SDS011;45231;44.826;20.312;2022-12-07T04:15:21;15.57;;;9.20;;
59424;SDS011;45231;44.826;20.312;2022-12-07T04:17:47;17.33;;;9.07;;
59424;SDS011;45231;44.826;20.312;2022-12-07T04:20:13;15.50;;;9.38;;
59424;SDS011;45231;44.826;20.312;2022-12-07T04:22:40;18.27;;;10.47;;
59424;SDS011;45231;44.826;20.312;2022-12-07T04:25:06;23.60;;;15.30;;
59424;SDS011;45231;44.826;20.312;2022-12-07T04:27:32;22.27;;;12.77;;
59424;SDS011;45231;44.826;20.312;2022-12-07T04:29:58;18.15;;;8.82;;
59424;SDS011;45231;44.826;20.312;2022-12-07T04:32:24;18.63;;;9.63;;
59424;SDS011;45231;44.826;20.312;2022-12-07T04:34:50;18.97;;;10.47;;
59424;SDS011;45231;44.826;20.312;2022-12-07T04:37:16;19.63;;;11.98;;
59424;SDS011;45231;44.826;20.312;2022-12-07T04:39:42;19.27;;;10.93;;
59424;SDS011;45231;44.826;20.312;2022-12-07T04:42:10;16.35;;;9.93;;
59424;SDS011;45231;44.826;20.312;2022-12-07T04:44:37;17.73;;;10.43;;
59424;SDS011;45231;44.826;20.312;2022-12-07T04:47:03;16.53;;;9.53;;
59424;SDS011;45231;44.826;20.312;2022-12-07T04:49:29;19.42;;;10.80;;
59424;SDS011;45231;44.826;20.312;2022-12-07T04:51:55;18.53;;;10.63;;
59424;SDS011;45231;44.826;20.312;2022-12-07T04:54:22;18.15;;;10.80;;
59424;SDS011;45231;44.826;20.312;2022-12-07T04:56:48;15.93;;;10.40;;
59424;SDS011;45231;44.826;20.312;2022-12-07T04:59:14;20.70;;;11.77;;
59424;SDS011;45231;44.826;20.312;2022-12-07T05:01:41;25.17;;;13.43;;
59424;SDS011;45231;44.826;20.312;2022-12-07T05:04:07;21.10;;;12.17;;
59424;SDS011;45231;44.826;20.312;2022-12-07T05:06:34;20.57;;;12.20;;
59424;SDS011;45231;44.826;20.312;2022-12-07T05:09:00;19.63;;;10.40;;
59424;SDS011;45231;44.826;20.312;2022-12-07T05:11:26;21.67;;;12.33;;
59424;SDS011;45231;44.826;20.312;2022-12-07T05:14:14;19.55;;;11.32;;
59424;SDS011;45231;44.826;20.312;2022-12-07T05:16:41;20.10;;;10.73;;
59424;SDS011;45231;44.826;20.312;2022-12-07T05:19:08;21.90;;;12.00;;
59424;SDS011;45231;44.826;20.312;2022-12-07T05:21:34;19.33;;;11.32;;
59424;SDS011;45231;44.826;20.312;2022-12-07T05:24:00;20.38;;;11.77;;
59424;SDS011;45231;44.826;20.312;2022-12-07T05:26:27;24.75;;;12.27;;
59424;SDS011;45231;44.826;20.312;2022-12-07T05:28:53;20.87;;;11.93;;
59424;SDS011;45231;44.826;20.312;2022-12-07T05:31:20;30.13;;;17.70;;
59424;SDS011;45231;44.826;20.312;2022-12-07T05:33:46;24.75;;;13.40;;
59424;SDS011;45231;44.826;20.312;2022-12-07T05:36:12;27.03;;;14.07;;
59424;SDS011;45231;44.826;20.312;2022-12-07T05:38:38;27.05;;;14.32;;
59424;SDS011;45231;44.826;20.312;2022-12-07T05:41:05;26.73;;;14.57;;
59424;SDS011;45231;44.826;20.312;2022-12-07T05:43:31;24.10;;;13.75;;
59424;SDS011;45231;44.826;20.312;2022-12-07T05:45:58;26.05;;;14.60;;
59424;SDS011;45231;44.826;20.312;2022-12-07T05:48:24;24.05;;;13.02;;
59424;SDS011;45231;44.826;20.312;2022-12-07T05:50:51;27.55;;;14.40;;
59424;SDS011;45231;44.826;20.312;2022-12-07T05:53:17;28.87;;;15.57;;
59424;SDS011;45231;44.826;20.312;2022-12-07T05:55:43;28.95;;;17.65;;
59424;SDS011;45231;44.826;20.312;2022-12-07T05:58:09;28.77;;;15.70;;
59424;SDS011;45231;44.826;20.312;2022-12-07T06:00:55;29.50;;;16.48;;
59424;SDS011;45231;44.826;20.312;2022-12-07T06:03:21;30.98;;;17.42;;
59424;SDS011;45231;44.826;20.312;2022-12-07T06:05:47;31.35;;;17.42;;
59424;SDS011;45231;44.826;20.312;2022-12-07T06:08:13;31.33;;;17.63;;
59424;SDS011;45231;44.826;20.312;2022-12-07T06:10:40;31.83;;;17.90;;
59424;SDS011;45231;44.826;20.312;2022-12-07T06:13:07;29.15;;;17.40;;
59424;SDS011;45231;44.826;20.312;2022-12-07T06:15:35;32.00;;;17.55;;
59424;SDS011;45231;44.826;20.312;2022-12-07T06:18:01;32.35;;;18.15;;
59424;SDS011;45231;44.826;20.312;2022-12-07T06:20:27;31.77;;;17.30;;
59424;SDS011;45231;44.826;20.312;2022-12-07T06:22:54;33.70;;;17.77;;
59424;SDS011;45231;44.826;20.312;2022-12-07T06:25:20;30.38;;;16.60;;
59424;SDS011;45231;44.826;20.312;2022-12-07T06:27:46;28.23;;;15.57;;
59424;SDS011;45231;44.826;20.312;2022-12-07T06:30:12;30.17;;;15.85;;
59424;SDS011;45231;44.826;20.312;2022-12-07T06:32:38;27.17;;;15.13;;
59424;SDS011;45231;44.826;20.312;2022-12-07T06:35:04;25.30;;;14.13;;
59424;SDS011;45231;44.826;20.312;2022-12-07T06:37:30;27.50;;;15.10;;
59424;SDS011;45231;44.826;20.312;2022-12-07T06:39:56;33.13;;;17.33;;
59424;SDS011;45231;44.826;20.312;2022-12-07T06:42:22;32.33;;;17.08;;
59424;SDS011;45231;44.826;20.312;2022-12-07T06:44:48;28.73;;;15.57;;
59424;SDS011;45231;44.826;20.312;2022-12-07T06:47:14;27.95;;;15.60;;
59424;SDS011;45231;44.826;20.312;2022-12-07T06:49:40;27.27;;;15.52;;
59424;SDS011;45231;44.826;20.312;2022-12-07T06:52:06;27.20;;;16.08;;
59424;SDS011;45231;44.826;20.312;2022-12-07T06:54:32;27.65;;;15.82;;
59424;SDS011;45231;44.826;20.312;2022-12-07T06:56:59;27.98;;;16.23;;
59424;SDS011;45231;44.826;20.312;2022-12-07T06:59:25;30.08;;;15.30;;
59424;SDS011;45231;44.826;20.312;2022-12-07T07:01:51;29.35;;;14.98;;
59424;SDS011;45231;44.826;20.312;2022-12-07T07:04:17;25.57;;;15.07;;
59424;SDS011;45231;44.826;20.312;2022-12-07T07:06:43;27.50;;;14.88;;
59424;SDS011;45231;44.826;20.312;2022-12-07T07:09:09;26.63;;;15.30;;
59424;SDS011;45231;44.826;20.312;2022-12-07T07:11:35;26.13;;;16.00;;
59424;SDS011;45231;44.826;20.312;2022-12-07T07:14:01;26.43;;;15.00;;
59424;SDS011;45231;44.826;20.312;2022-12-07T07:16:28;26.17;;;14.90;;
59424;SDS011;45231;44.826;20.312;2022-12-07T07:18:55;29.40;;;16.27;;
59424;SDS011;45231;44.826;20.312;2022-12-07T07:21:21;28.63;;;17.00;;
59424;SDS011;45231;44.826;20.312;2022-12-07T07:23:47;33.78;;;18.80;;
59424;SDS011;45231;44.826;20.312;2022-12-07T07:26:13;33.63;;;18.27;;
59424;SDS011;45231;44.826;20.312;2022-12-07T07:28:39;31.70;;;17.70;;
59424;SDS011;45231;44.826;20.312;2022-12-07T07:31:05;27.97;;;15.97;;
59424;SDS011;45231;44.826;20.312;2022-12-07T07:33:32;31.70;;;17.08;;
59424;SDS011;45231;44.826;20.312;2022-12-07T07:35:58;26.02;;;15.50;;
59424;SDS011;45231;44.826;20.312;2022-12-07T07:38:24;30.50;;;17.07;;
59424;SDS011;45231;44.826;20.312;2022-12-07T07:40:50;29.40;;;16.40;;
59424;SDS011;45231;44.826;20.312;2022-12-07T07:43:16;29.02;;;18.23;;
59424;SDS011;45231;44.826;20.312;2022-12-07T07:45:42;29.00;;;16.23;;
59424;SDS011;45231;44.826;20.312;2022-12-07T07:48:08;29.33;;;16.83;;
59424;SDS011;45231;44.826;20.312;2022-12-07T07:50:34;28.25;;;15.60;;
59424;SDS011;45231;44.826;20.312;2022-12-07T07:53:00;28.55;;;16.38;;
59424;SDS011;45231;44.826;20.312;2022-12-07T07:55:26;30.20;;;18.27;;
59424;SDS011;45231;44.826;20.312;2022-12-07T07:57:53;28.77;;;17.10;;
59424;SDS011;45231;44.826;20.312;2022-12-07T08:00:19;27.67;;;17.73;;
59424;SDS011;45231;44.826;20.312;2022-12-07T08:02:45;29.77;;;16.38;;
59424;SDS011;45231;44.826;20.312;2022-12-07T08:05:12;27.60;;;15.82;;
59424;SDS011;45231;44.826;20.312;2022-12-07T08:07:38;29.58;;;18.25;;
59424;SDS011;45231;44.826;20.312;2022-12-07T08:10:04;37.92;;;23.27;;
59424;SDS011;45231;44.826;20.312;2022-12-07T08:12:31;51.72;;;34.33;;
59424;SDS011;45231;44.826;20.312;2022-12-07T08:14:57;48.60;;;29.85;;
59424;SDS011;45231;44.826;20.312;2022-12-07T08:17:23;39.47;;;24.60;;
59424;SDS011;45231;44.826;20.312;2022-12-07T08:19:49;41.43;;;24.97;;
59424;SDS011;45231;44.826;20.312;2022-12-07T08:22:15;41.72;;;24.60;;
59424;SDS011;45231;44.826;20.312;2022-12-07T08:24:41;48.90;;;25.80;;
59424;SDS011;45231;44.826;20.312;2022-12-07T08:27:07;44.63;;;25.85;;
59424;SDS011;45231;44.826;20.312;2022-12-07T08:29:33;42.63;;;25.35;;
59424;SDS011;45231;44.826;20.312;2022-12-07T08:31:59;43.40;;;25.67;;
59424;SDS011;45231;44.826;20.312;2022-12-07T08:36:52;44.97;;;24.65;;
59424;SDS011;45231;44.826;20.312;2022-12-07T08:39:18;40.17;;;24.77;;
59424;SDS011;45231;44.826;20.312;2022-12-07T08:41:44;42.40;;;24.10;;
59424;SDS011;45231;44.826;20.312;2022-12-07T08:44:10;39.22;;;23.23;;
59424;SDS011;45231;44.826;20.312;2022-12-07T08:46:40;35.77;;;22.00;;
59424;SDS011;45231;44.826;20.312;2022-12-07T08:51:35;38.33;;;23.48;;
59424;SDS011;45231;44.826;20.312;2022-12-07T08:54:03;38.38;;;23.40;;
59424;SDS011;45231;44.826;20.312;2022-12-07T08:56:30;37.72;;;23.45;;
59424;SDS011;45231;44.826;20.312;2022-12-07T08:58:56;38.30;;;22.67;;
59424;SDS011;45231;44.826;20.312;2022-12-07T09:01:23;35.72;;;22.40;;
59424;SDS011;45231;44.826;20.312;2022-12-07T09:03:49;37.17;;;23.53;;
59424;SDS011;45231;44.826;20.312;2022-12-07T09:06:15;36.13;;;22.95;;
59424;SDS011;45231;44.826;20.312;2022-12-07T09:08:42;36.07;;;23.80;;
59424;SDS011;45231;44.826;20.312;2022-12-07T09:11:10;46.45;;;28.17;;
59424;SDS011;45231;44.826;20.312;2022-12-07T09:13:36;49.70;;;31.07;;
59424;SDS011;45231;44.826;20.312;2022-12-07T09:16:02;50.83;;;30.63;;
59424;SDS011;45231;44.826;20.312;2022-12-07T09:18:28;54.23;;;30.63;;
59424;SDS011;45231;44.826;20.312;2022-12-07T09:20:55;44.70;;;27.03;;
59424;SDS011;45231;44.826;20.312;2022-12-07T09:23:21;51.28;;;29.35;;
59424;SDS011;45231;44.826;20.312;2022-12-07T09:25:47;47.25;;;27.48;;
59424;SDS011;45231;44.826;20.312;2022-12-07T09:28:14;44.33;;;27.20;;
59424;SDS011;45231;44.826;20.312;2022-12-07T09:30:45;47.13;;;28.50;;
59424;SDS011;45231;44.826;20.312;2022-12-07T09:33:11;48.58;;;28.38;;
59424;SDS011;45231;44.826;20.312;2022-12-07T09:35:37;50.80;;;29.48;;
59424;SDS011;45231;44.826;20.312;2022-12-07T09:38:03;46.73;;;27.53;;
59424;SDS011;45231;44.826;20.312;2022-12-07T09:40:29;43.97;;;26.57;;
59424;SDS011;45231;44.826;20.312;2022-12-07T09:42:55;40.88;;;24.80;;
59424;SDS011;45231;44.826;20.312;2022-12-07T09:45:26;40.17;;;25.25;;
59424;SDS011;45231;44.826;20.312;2022-12-07T09:47:53;36.28;;;22.10;;
59424;SDS011;45231;44.826;20.312;2022-12-07T09:50:21;35.97;;;22.88;;
59424;SDS011;45231;44.826;20.312;2022-12-07T09:52:47;35.15;;;21.85;;
59424;SDS011;45231;44.826;20.312;2022-12-07T09:55:24;39.63;;;23.55;;
59424;SDS011;45231;44.826;20.312;2022-12-07T09:57:51;37.13;;;23.30;;
59424;SDS011;45231;44.826;20.312;2022-12-07T10:00:19;34.22;;;21.90;;
59424;SDS011;45231;44.826;20.312;2022-12-07T10:02:49;37.42;;;22.92;;
59424;SDS011;45231;44.826;20.312;2022-12-07T10:05:38;33.15;;;21.35;;
59424;SDS011;45231;44.826;20.312;2022-12-07T10:08:02;35.63;;;22.75;;
59424;SDS011;45231;44.826;20.312;2022-12-07T10:10:33;38.20;;;24.73;;
59424;SDS011;45231;44.826;20.312;2022-12-07T10:18:34;42.47;;;28.50;;
59424;SDS011;45231;44.826;20.312;2022-12-07T10:23:29;47.97;;;30.13;;
59424;SDS011;45231;44.826;20.312;2022-12-07T10:25:56;50.13;;;29.92;;
59424;SDS011;45231;44.826;20.312;2022-12-07T10:28:22;43.95;;;27.48;;
59424;SDS011;45231;44.826;20.312;2022-12-07T10:31:30;40.38;;;23.88;;
59424;SDS011;45231;44.826;20.312;2022-12-07T10:33:38;42.25;;;25.48;;
59424;SDS011;45231;44.826;20.312;2022-12-07T10:38:30;40.65;;;25.20;;
59424;SDS011;45231;44.826;20.312;2022-12-07T10:41:06;44.50;;;26.75;;
59424;SDS011;45231;44.826;20.312;2022-12-07T10:43:33;46.17;;;28.02;;
59424;SDS011;45231;44.826;20.312;2022-12-07T10:48:50;42.90;;;26.45;;
59424;SDS011;45231;44.826;20.312;2022-12-07T11:04:59;39.85;;;24.70;;
59424;SDS011;45231;44.826;20.312;2022-12-07T11:18:16;50.30;;;30.45;;
59424;SDS011;45231;44.826;20.312;2022-12-07T11:26:07;44.35;;;27.77;;
59424;SDS011;45231;44.826;20.312;2022-12-07T11:28:53;45.80;;;26.33;;
59424;SDS011;45231;44.826;20.312;2022-12-07T11:33:53;42.45;;;27.05;;
59424;SDS011;45231;44.826;20.312;2022-12-07T11:39:00;46.83;;;27.92;;
59424;SDS011;45231;44.826;20.312;2022-12-07T11:41:28;48.72;;;27.17;;
59424;SDS011;45231;44.826;20.312;2022-12-07T11:44:00;42.63;;;26.40;;
59424;SDS011;45231;44.826;20.312;2022-12-07T11:46:43;41.95;;;25.35;;
59424;SDS011;45231;44.826;20.312;2022-12-07T11:49:15;46.08;;;27.27;;
59424;SDS011;45231;44.826;20.312;2022-12-07T11:51:45;47.22;;;27.33;;
59424;SDS011;45231;44.826;20.312;2022-12-07T11:54:16;41.85;;;25.13;;
59424;SDS011;45231;44.826;20.312;2022-12-07T11:56:43;49.13;;;27.67;;
59424;SDS011;45231;44.826;20.312;2022-12-07T11:59:20;41.00;;;26.02;;
59424;SDS011;45231;44.826;20.312;2022-12-07T12:04:58;44.00;;;25.50;;
59424;SDS011;45231;44.826;20.312;2022-12-07T12:07:21;39.92;;;22.77;;
59424;SDS011;45231;44.826;20.312;2022-12-07T12:09:56;43.47;;;25.50;;
59424;SDS011;45231;44.826;20.312;2022-12-07T12:25:27;33.33;;;19.25;;
59424;SDS011;45231;44.826;20.312;2022-12-07T12:27:55;31.92;;;19.55;;
59424;SDS011;45231;44.826;20.312;2022-12-07T12:33:01;33.88;;;20.27;;
59424;SDS011;45231;44.826;20.312;2022-12-07T12:35:32;31.13;;;19.23;;
59424;SDS011;45231;44.826;20.312;2022-12-07T12:40:43;31.58;;;19.48;;
59424;SDS011;45231;44.826;20.312;2022-12-07T12:48:39;42.47;;;29.05;;
59424;SDS011;45231;44.826;20.312;2022-12-07T12:53:50;28.98;;;18.60;;
59424;SDS011;45231;44.826;20.312;2022-12-07T12:58:46;34.92;;;22.77;;
59424;SDS011;45231;44.826;20.312;2022-12-07T13:01:36;29.63;;;20.17;;
59424;SDS011;45231;44.826;20.312;2022-12-07T13:04:12;29.25;;;18.90;;
59424;SDS011;45231;44.826;20.312;2022-12-07T13:06:40;30.00;;;20.23;;
59424;SDS011;45231;44.826;20.312;2022-12-07T13:09:15;30.83;;;20.33;;
59424;SDS011;45231;44.826;20.312;2022-12-07T13:11:44;24.10;;;15.27;;
59424;SDS011;45231;44.826;20.312;2022-12-07T13:16:55;31.98;;;19.67;;
59424;SDS011;45231;44.826;20.312;2022-12-07T13:24:54;36.40;;;22.67;;
59424;SDS011;45231;44.826;20.312;2022-12-07T13:27:21;30.20;;;19.75;;
59424;SDS011;45231;44.826;20.312;2022-12-07T13:29:47;30.80;;;20.05;;
59424;SDS011;45231;44.826;20.312;2022-12-07T13:32:27;39.58;;;23.40;;
59424;SDS011;45231;44.826;20.312;2022-12-07T13:34:53;41.03;;;24.58;;
59424;SDS011;45231;44.826;20.312;2022-12-07T13:37:26;37.30;;;24.27;;
59424;SDS011;45231;44.826;20.312;2022-12-07T13:39:57;34.95;;;21.20;;
59424;SDS011;45231;44.826;20.312;2022-12-07T13:42:28;32.28;;;21.63;;
59424;SDS011;45231;44.826;20.312;2022-12-07T13:44:54;33.50;;;20.65;;
59424;SDS011;45231;44.826;20.312;2022-12-07T13:47:39;38.50;;;24.40;;
59424;SDS011;45231;44.826;20.312;2022-12-07T13:50:24;39.95;;;25.25;;
59424;SDS011;45231;44.826;20.312;2022-12-07T13:52:50;41.28;;;26.20;;
59424;SDS011;45231;44.826;20.312;2022-12-07T13:55:20;43.78;;;27.23;;
59424;SDS011;45231;44.826;20.312;2022-12-07T13:57:50;45.45;;;27.75;;
59424;SDS011;45231;44.826;20.312;2022-12-07T14:00:18;39.13;;;27.73;;
59424;SDS011;45231;44.826;20.312;2022-12-07T14:05:30;45.30;;;29.40;;
59424;SDS011;45231;44.826;20.312;2022-12-07T14:12:51;34.00;;;19.10;;
59424;SDS011;45231;44.826;20.312;2022-12-07T14:15:21;33.83;;;20.07;;
59424;SDS011;45231;44.826;20.312;2022-12-07T14:17:52;34.80;;;19.65;;
59424;SDS011;45231;44.826;20.312;2022-12-07T14:20:34;33.65;;;19.23;;
59424;SDS011;45231;44.826;20.312;2022-12-07T14:23:01;35.38;;;21.15;;
59424;SDS011;45231;44.826;20.312;2022-12-07T14:25:44;33.58;;;17.65;;
59424;SDS011;45231;44.826;20.312;2022-12-07T14:28:24;36.83;;;19.90;;
59424;SDS011;45231;44.826;20.312;2022-12-07T14:30:51;34.13;;;19.33;;
59424;SDS011;45231;44.826;20.312;2022-12-07T14:33:17;34.22;;;19.23;;
59424;SDS011;45231;44.826;20.312;2022-12-07T14:35:44;36.33;;;20.52;;
59424;SDS011;45231;44.826;20.312;2022-12-07T14:38:10;39.50;;;21.23;;
59424;SDS011;45231;44.826;20.312;2022-12-07T14:40:36;35.90;;;20.03;;
59424;SDS011;45231;44.826;20.312;2022-12-07T14:45:30;46.63;;;24.97;;
59424;SDS011;45231;44.826;20.312;2022-12-07T14:47:56;55.80;;;33.08;;
59424;SDS011;45231;44.826;20.312;2022-12-07T14:50:23;44.27;;;24.20;;
59424;SDS011;45231;44.826;20.312;2022-12-07T14:52:51;38.75;;;20.75;;
59424;SDS011;45231;44.826;20.312;2022-12-07T14:55:24;41.22;;;22.27;;
59424;SDS011;45231;44.826;20.312;2022-12-07T14:57:51;40.00;;;22.42;;
59424;SDS011;45231;44.826;20.312;2022-12-07T15:00:17;43.97;;;24.25;;
59424;SDS011;45231;44.826;20.312;2022-12-07T15:05:10;41.67;;;23.63;;
59424;SDS011;45231;44.826;20.312;2022-12-07T15:07:36;44.07;;;25.43;;
59424;SDS011;45231;44.826;20.312;2022-12-07T15:10:02;54.13;;;29.80;;
59424;SDS011;45231;44.826;20.312;2022-12-07T15:12:28;45.95;;;25.65;;
59424;SDS011;45231;44.826;20.312;2022-12-07T15:14:55;50.13;;;27.83;;
59424;SDS011;45231;44.826;20.312;2022-12-07T15:17:21;54.53;;;29.93;;
59424;SDS011;45231;44.826;20.312;2022-12-07T15:19:47;54.58;;;30.42;;
59424;SDS011;45231;44.826;20.312;2022-12-07T15:22:13;51.43;;;28.57;;
59424;SDS011;45231;44.826;20.312;2022-12-07T15:24:39;45.93;;;26.47;;
59424;SDS011;45231;44.826;20.312;2022-12-07T15:27:05;49.50;;;27.20;;
59424;SDS011;45231;44.826;20.312;2022-12-07T15:29:31;55.80;;;30.60;;
59424;SDS011;45231;44.826;20.312;2022-12-07T15:31:57;49.10;;;28.70;;
59424;SDS011;45231;44.826;20.312;2022-12-07T15:34:26;55.30;;;30.00;;
59424;SDS011;45231;44.826;20.312;2022-12-07T15:36:53;53.65;;;31.15;;
59424;SDS011;45231;44.826;20.312;2022-12-07T15:39:20;55.58;;;32.92;;
59424;SDS011;45231;44.826;20.312;2022-12-07T15:44:13;55.65;;;31.15;;
59424;SDS011;45231;44.826;20.312;2022-12-07T15:46:58;52.38;;;31.60;;
59424;SDS011;45231;44.826;20.312;2022-12-07T15:49:24;58.40;;;33.17;;
59424;SDS011;45231;44.826;20.312;2022-12-07T15:51:50;58.30;;;32.60;;
59424;SDS011;45231;44.826;20.312;2022-12-07T15:54:21;63.40;;;35.78;;
59424;SDS011;45231;44.826;20.312;2022-12-07T15:56:47;68.20;;;37.92;;
59424;SDS011;45231;44.826;20.312;2022-12-07T15:59:13;68.75;;;36.55;;
59424;SDS011;45231;44.826;20.312;2022-12-07T16:01:39;61.83;;;35.00;;
59424;SDS011;45231;44.826;20.312;2022-12-07T16:04:06;56.67;;;32.63;;
59424;SDS011;45231;44.826;20.312;2022-12-07T16:06:32;57.67;;;32.60;;
59424;SDS011;45231;44.826;20.312;2022-12-07T16:08:58;55.53;;;32.13;;
59424;SDS011;45231;44.826;20.312;2022-12-07T16:11:24;61.75;;;35.35;;
59424;SDS011;45231;44.826;20.312;2022-12-07T16:13:50;71.03;;;39.07;;
59424;SDS011;45231;44.826;20.312;2022-12-07T16:16:17;68.07;;;39.03;;
59424;SDS011;45231;44.826;20.312;2022-12-07T16:21:09;69.10;;;39.38;;
59424;SDS011;45231;44.826;20.312;2022-12-07T16:23:35;77.33;;;42.43;;
59424;SDS011;45231;44.826;20.312;2022-12-07T16:26:15;60.53;;;34.17;;
59424;SDS011;45231;44.826;20.312;2022-12-07T16:28:41;70.05;;;38.38;;
59424;SDS011;45231;44.826;20.312;2022-12-07T16:31:14;70.97;;;42.33;;
59424;SDS011;45231;44.826;20.312;2022-12-07T16:33:41;74.35;;;42.80;;
59424;SDS011;45231;44.826;20.312;2022-12-07T16:36:08;77.97;;;43.28;;
59424;SDS011;45231;44.826;20.312;2022-12-07T16:38:36;68.35;;;39.58;;